Time;durP1;ratioP1;P1;durP2;ratioP2;P2;SDS_P1;SDS_P2;PMS_P1;PMS_P2;Temp;Humidity;BMP_temperature;BMP_pressure;BME280_temperature;BME280_humidity;BME280_pressure;Samples;Min_cycle;Max_cycle;Signal;HPM_P1;HPM_P2
2022/04/08 00:00:10;;;;;;;19.10;4.30;;;;;;;8.64;70.24;97799.66;109400;1273;138203;-56
2022/04/08 00:02:38;;;;;;;13.70;5.00;;;;;;;8.61;70.38;97802.73;109544;1272;22429;-54
2022/04/08 00:05:11;;;;;;;17.80;3.50;;;;;;;8.59;70.62;97796.02;109505;1273;22513;-54
2022/04/08 00:07:40;;;;;;;16.40;4.00;;;;;;;8.57;70.67;97797.77;109332;1273;138548;-54
2022/04/08 00:10:28;;;;;;;13.40;3.30;;;;;;;8.52;70.74;97791.50;109502;1273;22467;-54
2022/04/08 00:12:57;;;;;;;17.40;3.50;;;;;;;8.49;70.91;97795.85;109386;1273;138929;-54
2022/04/08 00:15:25;;;;;;;15.50;3.80;;;;;;;8.46;71.06;97798.21;109403;1273;23116;-54
2022/04/08 00:17:56;;;;;;;19.90;4.30;;;;;;;8.43;71.20;97800.51;109497;1273;22436;-54
2022/04/08 00:20:25;;;;;;;14.90;3.80;;;;;;;8.40;71.51;97794.14;109308;1273;137987;-54
2022/04/08 00:22:53;;;;;;;21.20;4.10;;;;;;;8.38;71.68;97790.77;109512;1273;22407;-54
2022/04/08 00:25:22;;;;;;;13.50;3.40;;;;;;;8.36;71.74;97792.23;109367;1271;137886;-54
2022/04/08 00:27:50;;;;;;;22.70;4.00;;;;;;;8.34;71.98;97784.39;109515;1272;23559;-54
2022/04/08 00:30:18;;;;;;;12.30;3.70;;;;;;;8.31;72.21;97779.66;109413;1271;137914;-54
2022/04/08 00:32:47;;;;;;;14.20;4.80;;;;;;;8.27;72.37;97777.34;109523;1273;22244;-54
2022/04/08 00:35:15;;;;;;;14.90;3.30;;;;;;;8.23;72.77;97775.77;109543;1273;22487;-57
2022/04/08 00:37:43;;;;;;;13.20;3.40;;;;;;;8.19;72.95;97771.25;109396;1273;139015;-58
2022/04/08 00:40:12;;;;;;;11.80;3.20;;;;;;;8.15;73.39;97767.54;109515;1273;22434;-58
2022/04/08 00:42:41;;;;;;;14.90;4.00;;;;;;;8.12;73.74;97766.20;109403;1273;139268;-58
2022/04/08 00:45:10;;;;;;;11.70;3.30;;;;;;;8.10;73.88;97761.49;109507;1273;23495;-59
2022/04/08 00:47:41;;;;;;;11.10;3.40;;;;;;;8.09;74.08;97759.87;109513;1273;22457;-59
2022/04/08 00:50:12;;;;;;;13.30;3.50;;;;;;;8.09;74.29;97752.98;109321;1273;139672;-58
2022/04/08 00:52:41;;;;;;;18.00;4.50;;;;;;;8.05;74.49;97741.38;109455;1273;22422;-58
2022/04/08 00:55:10;;;;;;;15.50;4.30;;;;;;;8.03;74.59;97739.23;109391;1273;138567;-59
2022/04/08 00:57:40;;;;;;;20.70;5.40;;;;;;;8.02;74.81;97731.91;109455;1273;23578;-59
2022/04/08 01:00:09;;;;;;;19.70;3.80;;;;;;;8.00;74.98;97733.00;109256;1274;23151;-58
2022/04/08 01:02:43;;;;;;;17.00;3.60;;;;;;;7.96;75.10;97727.50;109387;1273;137178;-58
2022/04/08 01:05:12;;;;;;;18.20;4.40;;;;;;;7.94;75.10;97723.13;109527;1273;22391;-55
2022/04/08 01:07:40;;;;;;;14.40;3.80;;;;;;;7.89;75.11;97726.82;109356;1273;139024;-54
2022/04/08 01:10:09;;;;;;;15.20;3.60;;;;;;;7.88;75.52;97722.59;109407;1273;23112;-54
2022/04/08 01:12:37;;;;;;;18.00;3.50;;;;;;;7.87;75.63;97724.23;109372;1273;138127;-55
2022/04/08 01:15:05;;;;;;;15.10;2.90;;;;;;;7.85;75.89;97723.05;109524;1272;22417;-54
2022/04/08 01:17:33;;;;;;;14.20;3.50;;;;;;;7.83;76.32;97727.56;109564;1273;23607;-54
2022/04/08 01:20:22;;;;;;;15.80;3.10;;;;;;;7.81;76.44;97729.90;109399;1273;139395;-54
2022/04/08 01:22:50;;;;;;;22.00;4.30;;;;;;;7.81;76.85;97730.39;109526;1272;22432;-54
2022/04/08 01:25:18;;;;;;;12.10;3.90;;;;;;;7.81;77.00;97728.77;109407;1273;138892;-54
2022/04/08 01:27:46;;;;;;;18.10;3.80;;;;;;;7.82;76.98;97726.15;109563;1273;22383;-54
2022/04/08 01:30:17;;;;;;;19.60;3.80;;;;;;;7.83;77.05;97725.39;109480;1273;22426;-55
2022/04/08 01:32:56;;;;;;;18.90;3.50;;;;;;;7.81;77.18;97719.65;109423;1273;137571;-55
2022/04/08 01:35:24;;;;;;;13.10;3.70;;;;;;;7.79;77.16;97715.12;109452;1273;23253;-55
2022/04/08 01:37:52;;;;;;;18.10;4.00;;;;;;;7.76;77.29;97708.11;109269;1273;138916;-54
2022/04/08 01:40:40;;;;;;;16.50;3.50;;;;;;;7.73;77.44;97702.82;109496;1272;22470;-55
2022/04/08 01:43:09;;;;;;;13.10;4.60;;;;;;;7.72;77.36;97701.09;109351;1272;139641;-55
2022/04/08 01:48:13;;;;;;;16.40;4.20;;;;;;;7.71;77.87;97701.64;101730;1310;545022;-55
2022/04/08 01:50:42;;;;;;;11.20;3.50;;;;;;;7.68;77.77;97701.34;108214;1284;138902;-56
2022/04/08 01:53:11;;;;;;;13.50;3.60;;;;;;;7.67;78.06;97693.16;108312;1286;22473;-55
2022/04/08 01:55:39;;;;;;;13.00;3.20;;;;;;;7.67;77.93;97686.54;108159;1286;138369;-56
2022/04/08 01:58:08;;;;;;;17.00;4.80;;;;;;;7.66;78.20;97681.51;108278;1286;22448;-55
2022/04/08 02:00:38;;;;;;;21.30;3.80;;;;;;;7.66;78.25;97679.23;108280;1286;22983;-54
2022/04/08 02:03:09;;;;;;;19.60;5.20;;;;;;;7.64;78.39;97685.11;109210;1274;137881;-55
2022/04/08 02:05:38;;;;;;;18.00;3.80;;;;;;;7.61;78.34;97686.93;109424;1274;22441;-55
2022/04/08 02:08:13;;;;;;;11.70;3.70;;;;;;;7.59;78.70;97691.98;109291;1274;137792;-55
2022/04/08 02:10:42;;;;;;;11.50;4.20;;;;;;;7.57;78.80;97694.60;109372;1275;22465;-55
2022/04/08 02:13:16;;;;;;;15.50;3.50;;;;;;;7.54;78.92;97691.31;109336;1274;137524;-55
2022/04/08 02:15:48;;;;;;;13.20;4.00;;;;;;;7.52;78.73;97693.44;108261;1274;25404;-54
2022/04/08 02:18:17;;;;;;;16.80;3.30;;;;;;;7.51;78.92;97691.77;104866;1274;23981;-54
2022/04/08 02:20:45;;;;;;;13.70;3.00;;;;;;;7.49;79.07;97695.16;109308;1274;137726;-55
2022/04/08 02:23:15;;;;;;;17.60;4.90;;;;;;;7.44;79.13;97697.41;109443;1274;22398;-55
2022/04/08 02:25:45;;;;;;;10.40;3.60;;;;;;;7.42;79.44;97703.00;109322;1274;138822;-55
2022/04/08 02:28:17;;;;;;;14.80;3.60;;;;;;;7.42;79.37;97701.65;109357;1274;22645;-55
2022/04/08 02:30:45;;;;;;;14.10;4.40;;;;;;;7.41;79.65;97700.58;109399;1274;22538;-55
2022/04/08 02:33:13;;;;;;;15.00;3.80;;;;;;;7.41;79.45;97701.11;109266;1276;138488;-55
2022/04/08 02:35:42;;;;;;;13.70;4.60;;;;;;;7.39;79.97;97700.46;109396;1275;22446;-55
2022/04/08 02:38:11;;;;;;;18.30;4.60;;;;;;;7.38;79.90;97692.50;109346;1274;138746;-55
2022/04/08 02:40:39;;;;;;;16.50;5.70;;;;;;;7.37;79.92;97684.13;109481;1274;23207;-57
2022/04/08 02:43:08;;;;;;;16.40;4.50;;;;;;;7.35;79.97;97679.71;109351;1274;137957;-55
2022/04/08 02:45:36;;;;;;;11.60;3.40;;;;;;;7.32;80.07;97679.09;109517;1274;22442;-55
2022/04/08 02:48:04;;;;;;;14.20;4.50;;;;;;;7.30;79.81;97674.22;109454;1274;23663;-55
2022/04/08 02:50:33;;;;;;;10.90;3.60;;;;;;;7.27;80.37;97668.98;109360;1272;139024;-55
2022/04/08 02:53:02;;;;;;;9.10;3.50;;;;;;;7.25;80.17;97666.27;109486;1274;23229;-55
2022/04/08 02:55:30;;;;;;;17.10;4.00;;;;;;;7.23;80.17;97669.85;109337;1274;138973;-55
2022/04/08 02:58:04;;;;;;;7.50;3.60;;;;;;;7.23;80.39;97662.27;109435;1274;23103;-55
2022/04/08 03:00:32;;;;;;;21.10;4.10;;;;;;;7.23;80.68;97670.41;109388;1276;22458;-55
2022/04/08 03:03:00;;;;;;;19.30;4.80;;;;;;;7.23;80.99;97666.51;109260;1275;138175;-55
2022/04/08 03:05:28;;;;;;;13.60;6.20;;;;;;;7.23;80.94;97666.50;109440;1274;23409;-55
2022/04/08 03:07:56;;;;;;;16.90;4.70;;;;;;;7.22;80.80;97668.14;109361;1274;137444;-55
2022/04/08 03:10:24;;;;;;;10.20;4.10;;;;;;;7.21;80.96;97667.57;109454;1274;22447;-55
2022/04/08 03:12:54;;;;;;;12.30;4.10;;;;;;;7.19;80.88;97667.42;109360;1274;138851;-55
2022/04/08 03:15:22;;;;;;;22.80;5.10;;;;;;;7.19;80.81;97667.96;109452;1274;22617;-55
2022/04/08 03:17:51;;;;;;;12.10;4.10;;;;;;;7.19;80.57;97668.95;109466;1273;22393;-55
2022/04/08 03:20:19;;;;;;;13.30;4.20;;;;;;;7.19;80.69;97664.98;109345;1274;138318;-55
2022/04/08 03:22:47;;;;;;;9.50;4.10;;;;;;;7.17;80.92;97662.45;109462;1274;22411;-55
2022/04/08 03:25:16;;;;;;;10.80;4.00;;;;;;;7.13;80.96;97662.03;109333;1274;137720;-55
2022/04/08 03:27:45;;;;;;;11.30;3.80;;;;;;;7.10;80.96;97661.55;109470;1274;22486;-55
2022/04/08 03:30:13;;;;;;;12.70;3.70;;;;;;;7.09;81.34;97666.33;109475;1274;22480;-55
2022/04/08 03:32:41;;;;;;;21.50;4.20;;;;;;;7.10;81.25;97667.73;109162;1276;138532;-55
2022/04/08 03:35:11;;;;;;;14.50;4.90;;;;;;;7.09;81.60;97671.03;109276;1276;22439;-55
2022/04/08 03:37:39;;;;;;;15.30;5.80;;;;;;;7.09;81.50;97671.14;109299;1274;139402;-55
2022/04/08 03:40:09;;;;;;;14.00;4.20;;;;;;;7.08;81.44;97679.70;109381;1275;22448;-55
2022/04/08 03:42:38;;;;;;;13.90;4.90;;;;;;;7.09;81.53;97684.42;109385;1274;22410;-55
2022/04/08 03:45:10;;;;;;;13.60;4.20;;;;;;;7.10;81.48;97681.21;109243;1275;137530;-56
2022/04/08 03:47:39;;;;;;;15.40;4.60;;;;;;;7.12;81.61;97687.82;104949;1274;23981;-54
2022/04/08 03:50:08;;;;;;;14.10;4.90;;;;;;;7.12;81.86;97686.25;104859;1277;138631;-55
2022/04/08 03:52:37;;;;;;;11.30;3.60;;;;;;;7.13;81.83;97685.54;109339;1276;22949;-55
2022/04/08 03:55:06;;;;;;;18.60;4.30;;;;;;;7.13;81.71;97687.10;109267;1275;139589;-56
2022/04/08 03:57:34;;;;;;;16.50;4.70;;;;;;;7.13;81.74;97689.82;109287;1276;24546;-56
2022/04/08 04:00:02;;;;;;;18.00;4.50;;;;;;;7.15;81.73;97691.16;109396;1275;22319;-55
2022/04/08 04:02:34;;;;;;;18.00;5.20;;;;;;;7.16;81.96;97691.16;109249;1276;138232;-55
2022/04/08 04:05:04;;;;;;;16.50;5.00;;;;;;;7.18;81.95;97683.84;109366;1276;23072;-55
2022/04/08 04:07:33;;;;;;;20.60;5.60;;;;;;;7.18;81.77;97679.13;109232;1276;137945;-56
2022/04/08 04:10:02;;;;;;;16.30;5.00;;;;;;;7.16;81.88;97668.09;109365;1275;22430;-56
2022/04/08 04:12:32;;;;;;;14.70;4.10;;;;;;;7.13;81.81;97660.14;109392;1276;22403;-56
2022/04/08 04:15:09;;;;;;;9.50;3.80;;;;;;;7.12;81.95;97659.16;109291;1276;136825;-56
2022/04/08 04:17:40;;;;;;;12.40;4.10;;;;;;;7.12;82.03;97653.91;109399;1275;22523;-56
2022/04/08 04:20:28;;;;;;;11.90;4.10;;;;;;;7.11;82.06;97650.02;109123;1276;136958;-56
2022/04/08 04:22:56;;;;;;;17.80;4.50;;;;;;;7.10;81.95;97642.39;109337;1275;22413;-55
2022/04/08 04:25:26;;;;;;;14.10;4.60;;;;;;;7.08;82.09;97637.79;109272;1275;138724;-55
2022/04/08 04:27:55;;;;;;;21.60;6.00;;;;;;;7.04;82.14;97631.89;109369;1275;22487;-55
2022/04/08 04:30:26;;;;;;;13.10;4.20;;;;;;;7.01;82.15;97627.50;109324;1276;23296;-55
2022/04/08 04:32:56;;;;;;;14.00;4.80;;;;;;;7.00;82.39;97632.98;109247;1275;139067;-55
2022/04/08 04:35:26;;;;;;;21.00;4.90;;;;;;;7.00;82.73;97634.98;109392;1274;22446;-55
2022/04/08 04:37:54;;;;;;;16.00;4.80;;;;;;;7.00;82.38;97641.70;109225;1275;138370;-55
2022/04/08 04:40:25;;;;;;;21.00;5.60;;;;;;;7.00;82.65;97645.02;109248;1277;22469;-55
2022/04/08 04:42:55;;;;;;;17.90;4.30;;;;;;;6.99;82.88;97643.27;109290;1276;139133;-55
2022/04/08 04:45:24;;;;;;;23.10;5.80;;;;;;;7.00;82.81;97642.19;109379;1276;23494;-55
2022/04/08 04:47:52;;;;;;;12.40;4.30;;;;;;;6.99;82.81;97641.16;109369;1275;23218;-55
2022/04/08 04:50:20;;;;;;;21.90;4.80;;;;;;;7.00;82.91;97635.96;109271;1276;138866;-55
2022/04/08 04:52:48;;;;;;;17.70;4.80;;;;;;;7.01;82.90;97634.13;109368;1276;22524;-55
2022/04/08 04:55:17;;;;;;;13.10;4.60;;;;;;;7.03;83.11;97636.27;109286;1274;138639;-55
2022/04/08 04:57:47;;;;;;;15.30;4.00;;;;;;;7.06;83.24;97652.94;109410;1275;23384;-55
2022/04/08 05:00:19;;;;;;;16.50;4.60;;;;;;;7.08;82.90;97650.95;109418;1274;22440;-55
2022/04/08 05:02:49;;;;;;;19.00;4.90;;;;;;;7.10;83.04;97641.24;109207;1276;138863;-56
2022/04/08 05:05:17;;;;;;;19.20;4.70;;;;;;;7.12;82.93;97627.54;109363;1275;23159;-55
2022/04/08 05:07:56;;;;;;;22.90;6.40;;;;;;;7.15;82.94;97629.80;109284;1276;138922;-55
2022/04/08 05:10:26;;;;;;;16.30;4.90;;;;;;;7.18;83.21;97625.77;109276;1276;22532;-55
2022/04/08 05:12:54;;;;;;;15.80;5.10;;;;;;;7.23;83.10;97630.54;109307;1274;139880;-56
2022/04/08 05:15:22;;;;;;;13.30;4.20;;;;;;;7.30;83.30;97633.47;109366;1275;22443;-55
2022/04/08 05:17:53;;;;;;;21.90;4.70;;;;;;;7.37;83.13;97633.13;109394;1275;22425;-55
2022/04/08 05:20:22;;;;;;;12.20;3.90;;;;;;;7.46;83.03;97629.77;109285;1277;138588;-55
2022/04/08 05:22:50;;;;;;;14.00;4.00;;;;;;;7.52;82.62;97624.77;109382;1276;22668;-55
2022/04/08 05:25:38;;;;;;;16.30;5.00;;;;;;;7.59;82.52;97617.35;109258;1275;139521;-55
2022/04/08 05:28:07;;;;;;;13.20;3.90;;;;;;;7.65;82.43;97610.45;109392;1276;22593;-55
2022/04/08 05:30:35;;;;;;;12.00;4.00;;;;;;;7.73;82.20;97608.27;109225;1276;22471;-55
2022/04/08 05:33:05;;;;;;;17.00;4.30;;;;;;;7.81;81.85;97607.31;109264;1276;139561;-54
2022/04/08 05:35:33;;;;;;;15.10;4.20;;;;;;;7.89;81.76;97598.89;109349;1275;22453;-54
2022/04/08 05:38:02;;;;;;;12.20;3.70;;;;;;;7.98;81.48;97595.20;109281;1275;139681;-55
2022/04/08 05:40:30;;;;;;;21.50;4.30;;;;;;;8.04;81.15;97584.46;109380;1276;22542;-56
2022/04/08 05:42:59;;;;;;;20.60;4.20;;;;;;;8.10;80.89;97573.80;109323;1276;137991;-57
2022/04/08 05:45:27;;;;;;;14.50;4.40;;;;;;;8.14;80.64;97565.13;109408;1276;22439;-55
2022/04/08 05:47:58;;;;;;;14.20;4.30;;;;;;;8.22;80.62;97563.64;109378;1274;22454;-54
2022/04/08 05:50:26;;;;;;;19.30;5.20;;;;;;;8.28;80.34;97565.13;109087;1277;139708;-54
2022/04/08 05:52:55;;;;;;;15.10;5.10;;;;;;;8.36;80.20;97573.25;109413;1274;22488;-55
2022/04/08 05:55:23;;;;;;;16.30;5.50;;;;;;;8.44;79.97;97579.44;109249;1275;139439;-55
2022/04/08 05:57:56;;;;;;;15.40;4.90;;;;;;;8.50;79.64;97581.36;109368;1274;22423;-55
2022/04/08 06:00:24;;;;;;;13.40;5.30;;;;;;;8.56;79.35;97583.45;109374;1275;22455;-55
2022/04/08 06:02:56;;;;;;;14.40;4.40;;;;;;;8.63;79.13;97583.27;109265;1275;138062;-55
2022/04/08 06:05:25;;;;;;;16.80;4.50;;;;;;;8.66;78.78;97584.84;109362;1275;23663;-55
2022/04/08 06:07:56;;;;;;;18.00;5.20;;;;;;;8.71;78.88;97581.51;109286;1274;138705;-55
2022/04/08 06:10:43;;;;;;;;;;;;;;;8.78;78.77;97576.58;109391;1275;22528;-55
2022/04/08 06:13:12;;;;;;;16.00;5.30;;;;;;;8.84;78.67;97576.20;109296;1275;124463;-55
2022/04/08 06:16:00;;;;;;;;;;;;;;;8.92;78.28;97582.80;109370;1275;22492;-55
2022/04/08 06:18:29;;;;;;;17.30;3.90;;;;;;;8.98;78.06;97583.48;109372;1274;22579;-55
2022/04/08 06:21:17;;;;;;;14.00;4.40;;;;;;;9.05;77.76;97572.54;109244;1277;138722;-55
2022/04/08 06:23:46;;;;;;;14.20;4.80;;;;;;;9.10;77.33;97578.96;109369;1277;22412;-55
2022/04/08 06:26:16;;;;;;;17.50;5.50;;;;;;;9.13;76.94;97584.57;109229;1275;138684;-55
2022/04/08 06:28:46;;;;;;;17.90;4.70;;;;;;;9.15;76.65;97577.52;109372;1275;22456;-55
2022/04/08 06:31:14;;;;;;;15.50;5.10;;;;;;;9.14;76.30;97566.30;109176;1276;138231;-55
2022/04/08 06:33:46;;;;;;;22.30;4.80;;;;;;;9.13;76.14;97557.34;109382;1276;22440;-55
2022/04/08 06:36:14;;;;;;;16.80;4.90;;;;;;;9.15;76.07;97544.77;109406;1275;22684;-55
2022/04/08 06:38:42;;;;;;;13.20;4.10;;;;;;;9.14;75.74;97548.52;109229;1276;138235;-55
2022/04/08 06:41:11;;;;;;;14.90;4.90;;;;;;;9.14;75.68;97549.99;109364;1275;22238;-55
2022/04/08 06:43:39;;;;;;;13.80;4.50;;;;;;;9.17;75.68;97552.52;109267;1275;138342;-55
2022/04/08 06:46:07;;;;;;;20.20;4.50;;;;;;;9.23;75.71;97564.52;109364;1277;23703;-55
2022/04/08 06:48:38;;;;;;;16.60;5.10;;;;;;;9.31;75.44;97580.81;109375;1274;22369;-55
2022/04/08 06:51:07;;;;;;;15.40;5.30;;;;;;;9.38;75.34;97598.52;109269;1275;137979;-55
2022/04/08 06:53:39;;;;;;;19.20;4.60;;;;;;;9.47;75.15;97610.48;109295;1277;22457;-55
2022/04/08 06:56:08;;;;;;;17.90;3.80;;;;;;;9.58;74.90;97615.30;109248;1277;139877;-55
2022/04/08 06:58:39;;;;;;;16.90;4.60;;;;;;;9.68;74.65;97615.73;109387;1275;22456;-55
2022/04/08 07:01:26;;;;;;;12.20;4.60;;;;;;;9.78;74.28;97604.23;109244;1275;139134;-55
2022/04/08 07:03:54;;;;;;;18.70;4.00;;;;;;;9.86;73.94;97594.83;109345;1275;22525;-55
2022/04/08 07:06:23;;;;;;;19.30;4.60;;;;;;;9.94;73.79;97587.96;109346;1275;22503;-59
2022/04/08 07:09:11;;;;;;;;;;;;;;;10.01;73.21;97589.98;109288;1275;139230;-59
2022/04/08 07:11:39;;;;;;;;;;;;;;;10.06;73.05;97590.29;109370;1275;22458;-59
2022/04/08 07:14:07;;;;;;;;;;;;;;;10.11;72.83;97593.98;109320;1274;123789;-59
2022/04/08 07:16:35;;;;;;;11.40;4.30;;;;;;;10.14;72.76;97601.42;109376;1275;22441;-59
2022/04/08 07:19:22;;;;;;;11.10;4.00;;;;;;;10.20;72.37;97608.32;109197;1274;137704;-60
2022/04/08 07:21:51;;;;;;;14.50;4.70;;;;;;;10.26;72.18;97612.05;109458;1274;22406;-60
2022/04/08 07:24:20;;;;;;;16.60;5.10;;;;;;;10.32;71.89;97611.45;109424;1274;23605;-59
2022/04/08 07:26:48;;;;;;;16.90;4.30;;;;;;;10.37;71.55;97612.73;109271;1274;138801;-59
2022/04/08 07:29:16;;;;;;;14.70;4.30;;;;;;;10.39;71.54;97609.30;109365;1274;23332;-59
2022/04/08 07:31:44;;;;;;;17.20;4.90;;;;;;;10.44;71.44;97613.83;109235;1274;138212;-59
2022/04/08 07:34:12;;;;;;;15.90;4.30;;;;;;;10.48;71.27;97617.28;109336;1277;22588;-59
2022/04/08 07:36:41;;;;;;;10.60;4.30;;;;;;;10.55;71.16;97619.05;109392;1275;22395;-55
2022/04/08 07:39:09;;;;;;;21.00;5.50;;;;;;;10.60;71.14;97620.95;109281;1274;139021;-55
2022/04/08 07:41:37;;;;;;;19.30;5.30;;;;;;;10.63;70.71;97625.45;109391;1274;23011;-55
2022/04/08 07:44:05;;;;;;;15.90;4.80;;;;;;;10.65;70.46;97626.47;109282;1274;138069;-55
2022/04/08 07:46:38;;;;;;;16.50;5.40;;;;;;;10.64;70.32;97633.29;109368;1276;23649;-55
2022/04/08 07:49:06;;;;;;;20.50;5.20;;;;;;;10.65;70.18;97635.28;109252;1275;139303;-55
2022/04/08 07:51:36;;;;;;;16.90;5.20;;;;;;;10.67;70.07;97632.09;109383;1275;22424;-55
2022/04/08 07:54:07;;;;;;;19.00;4.90;;;;;;;10.70;70.08;97629.83;109347;1276;22419;-55
2022/04/08 07:56:35;;;;;;;16.40;4.10;;;;;;;10.73;69.86;97623.34;109253;1277;138720;-55
2022/04/08 07:59:04;;;;;;;23.70;5.40;;;;;;;10.75;69.38;97617.81;109369;1276;22454;-55
2022/04/08 08:01:32;;;;;;;21.30;5.70;;;;;;;10.77;69.35;97621.36;109123;1277;138660;-55
2022/04/08 08:04:00;;;;;;;23.30;6.10;;;;;;;10.80;69.44;97615.69;109278;1276;22408;-55
2022/04/08 08:06:29;;;;;;;22.40;6.90;;;;;;;10.81;69.47;97614.20;109374;1276;22484;-55
2022/04/08 08:09:02;;;;;;;20.80;6.10;;;;;;;10.83;69.58;97617.23;108517;1278;139074;-55
2022/04/08 08:11:35;;;;;;;16.10;4.90;;;;;;;10.87;69.58;97618.51;108806;1277;22461;-55
2022/04/08 08:14:25;;;;;;;20.30;5.20;;;;;;;10.92;68.94;97613.17;109179;1277;138396;-55
2022/04/08 08:17:00;;;;;;;;;;;;;;;10.95;68.37;97600.35;108792;1276;22587;-55
2022/04/08 08:19:37;;;;;;;19.20;4.60;;;;;;;11.01;68.07;97593.30;109215;1276;123984;-55
2022/04/08 08:22:07;;;;;;;13.10;4.40;;;;;;;11.08;68.09;97594.50;109087;1275;22441;-55
2022/04/08 08:24:58;;;;;;;17.80;5.20;;;;;;;11.14;67.74;97586.33;108983;1276;23186;-55
2022/04/08 08:27:56;;;;;;;22.00;6.60;;;;;;;11.22;67.60;97581.98;108824;1276;22431;-55
2022/04/08 08:30:35;;;;;;;16.70;4.70;;;;;;;11.31;67.43;97578.34;109116;1277;22451;-55
2022/04/08 08:33:10;;;;;;;21.80;7.00;;;;;;;11.39;67.18;97567.75;108631;1277;139147;-55
2022/04/08 08:35:49;;;;;;;14.30;5.70;;;;;;;11.44;66.66;97561.67;109000;1276;22485;-56
2022/04/08 08:38:32;;;;;;;18.70;6.30;;;;;;;11.48;66.46;97553.83;109063;1277;138863;-55
2022/04/08 08:41:08;;;;;;;14.40;5.90;;;;;;;11.54;66.65;97551.10;108949;1277;22420;-56
2022/04/08 08:43:42;;;;;;;13.70;5.20;;;;;;;11.63;66.70;97557.02;108913;1277;140086;-55
2022/04/08 08:46:17;;;;;;;18.20;6.30;;;;;;;11.73;66.30;97552.84;109005;1275;22426;-55
2022/04/08 08:48:56;;;;;;;15.10;5.00;;;;;;;11.82;65.69;97558.62;109190;1277;22437;-55
2022/04/08 08:51:26;;;;;;;16.60;6.50;;;;;;;11.89;65.12;97566.52;109270;1274;137617;-55
2022/04/08 08:53:56;;;;;;;19.10;6.90;;;;;;;11.95;64.56;97566.48;109205;1276;23606;-55
2022/04/08 08:56:38;;;;;;;12.30;5.90;;;;;;;11.99;64.57;97569.78;108880;1277;137663;-55
2022/04/08 08:59:11;;;;;;;14.70;5.70;;;;;;;11.99;64.42;97573.33;109201;1275;22452;-55
2022/04/08 09:01:49;;;;;;;16.40;6.00;;;;;;;11.97;64.12;97576.42;109290;1274;137869;-55
2022/04/08 09:04:18;;;;;;;18.30;6.00;;;;;;;11.97;64.17;97578.52;109285;1276;22459;-55
2022/04/08 09:06:51;;;;;;;15.20;5.50;;;;;;;11.98;64.26;97575.98;108892;1280;22519;-55
2022/04/08 09:09:32;;;;;;;14.80;5.00;;;;;;;12.00;64.07;97575.33;108427;1281;138435;-55
2022/04/08 09:12:13;;;;;;;18.60;6.20;;;;;;;12.02;63.90;97573.02;108861;1281;22422;-55
2022/04/08 09:14:52;;;;;;;17.10;7.40;;;;;;;12.06;63.91;97571.95;108791;1279;138646;-55
2022/04/08 09:17:35;;;;;;;18.50;7.60;;;;;;;12.11;63.55;97565.65;108938;1280;22632;-55
2022/04/08 09:20:06;;;;;;;19.20;6.70;;;;;;;12.15;63.27;97571.60;108810;1279;138563;-55
2022/04/08 09:22:36;;;;;;;18.00;6.40;;;;;;;12.18;62.98;97567.63;108851;1281;22749;-55
2022/04/08 09:25:11;;;;;;;22.20;7.00;;;;;;;12.19;62.46;97562.46;109189;1274;22458;-55
2022/04/08 09:27:40;;;;;;;17.50;6.20;;;;;;;12.23;62.58;97563.90;109315;1274;138862;-55
2022/04/08 09:30:18;;;;;;;20.30;6.90;;;;;;;12.28;62.39;97568.52;109450;1274;22489;-55
2022/04/08 09:32:50;;;;;;;14.10;5.60;;;;;;;12.36;62.55;97578.48;109324;1274;138766;-53
2022/04/08 09:35:20;;;;;;;19.00;6.60;;;;;;;12.42;62.38;97584.64;109435;1274;22438;-53
2022/04/08 09:38:01;;;;;;;14.70;6.20;;;;;;;12.48;61.92;97586.28;109197;1276;137688;-53
2022/04/08 09:40:38;;;;;;;20.90;9.00;;;;;;;12.51;61.80;97585.27;109425;1274;22620;-54
2022/04/08 09:43:08;;;;;;;24.80;7.60;;;;;;;12.54;61.79;97581.77;109381;1275;22399;-54
2022/04/08 09:45:38;;;;;;;21.90;8.90;;;;;;;12.58;61.45;97579.75;109312;1274;138336;-53
2022/04/08 09:48:09;;;;;;;17.60;7.80;;;;;;;12.62;61.98;97574.17;109417;1274;22426;-54
2022/04/08 09:50:39;;;;;;;21.70;8.20;;;;;;;12.68;61.97;97570.11;109325;1274;137926;-54
2022/04/08 09:53:12;;;;;;;22.20;8.80;;;;;;;12.74;61.68;97563.41;109460;1274;22431;-54
2022/04/08 09:55:42;;;;;;;28.30;9.40;;;;;;;12.78;61.66;97554.72;109248;1274;137986;-54
2022/04/08 09:58:11;;;;;;;36.50;14.80;;;;;;;12.83;61.46;97554.77;109318;1274;22394;-54
2022/04/08 10:00:41;;;;;;;36.60;18.40;;;;;;;12.87;61.81;97557.86;109431;1274;22414;-54
2022/04/08 10:03:13;;;;;;;67.30;30.40;;;;;;;12.93;61.68;97554.41;108887;1277;137987;-54
2022/04/08 10:05:46;;;;;;;28.40;13.00;;;;;;;13.00;61.53;97552.27;109473;1274;22486;-55
2022/04/08 10:08:19;;;;;;;25.10;9.70;;;;;;;13.06;61.43;97550.93;109337;1274;139656;-55
2022/04/08 10:11:13;;;;;;;17.50;8.20;;;;;;;13.12;61.19;97555.01;109382;1274;23413;-55
2022/04/08 10:14:03;;;;;;;17.30;8.20;;;;;;;13.19;60.90;97556.64;109267;1274;139814;-55
2022/04/08 10:16:32;;;;;;;15.90;8.30;;;;;;;13.25;61.22;97559.92;106839;1274;22728;-55
2022/04/08 10:19:06;;;;;;;16.10;8.50;;;;;;;13.33;61.29;97558.41;109390;1275;22552;-55
2022/04/08 10:21:37;;;;;;;18.30;8.80;;;;;;;13.43;61.18;97549.83;109250;1274;137989;-55
2022/04/08 10:24:13;;;;;;;15.70;9.00;;;;;;;13.52;61.20;97538.52;109145;1274;22427;-55
2022/04/08 10:26:58;;;;;;;17.80;8.30;;;;;;;13.62;60.61;97527.77;109314;1274;138832;-55
2022/04/08 10:29:35;;;;;;;27.20;10.50;;;;;;;13.69;60.42;97531.27;109463;1274;23347;-55
2022/04/08 10:32:12;;;;;;;12.80;7.60;;;;;;;13.73;60.19;97539.89;109333;1274;138631;-55
2022/04/08 10:34:42;;;;;;;21.00;10.70;;;;;;;13.79;59.73;97542.73;109461;1273;22451;-55
2022/04/08 10:37:17;;;;;;;18.20;7.80;;;;;;;13.80;59.30;97539.89;109437;1274;22558;-55
2022/04/08 10:40:01;;;;;;;14.20;7.80;;;;;;;13.81;59.26;97545.45;109385;1274;137372;-55
2022/04/08 10:42:33;;;;;;;20.80;8.10;;;;;;;13.82;59.08;97543.70;109470;1273;22494;-55
2022/04/08 10:45:12;;;;;;;27.00;9.70;;;;;;;13.82;59.27;97545.10;109329;1274;138713;-55
2022/04/08 10:47:46;;;;;;;33.70;16.50;;;;;;;13.79;58.87;97551.00;109428;1274;22457;-55
2022/04/08 10:50:33;;;;;;;20.80;9.20;;;;;;;13.76;59.12;97552.52;109345;1274;138712;-55
2022/04/08 10:53:03;;;;;;;16.90;7.60;;;;;;;13.72;59.10;97554.94;109411;1274;22361;-55
2022/04/08 10:55:32;;;;;;;20.40;9.10;;;;;;;13.69;58.95;97556.99;109354;1274;138513;-55
2022/04/08 10:58:01;;;;;;;30.30;14.00;;;;;;;13.66;58.93;97558.25;109443;1274;22521;-55
2022/04/08 11:00:38;;;;;;;21.60;9.30;;;;;;;13.60;59.08;97560.60;109415;1274;22544;-55
2022/04/08 11:03:12;;;;;;;37.50;16.30;;;;;;;13.56;59.22;97566.50;109354;1274;138590;-55
2022/04/08 11:05:41;;;;;;;24.10;12.00;;;;;;;13.51;59.31;97572.96;109455;1274;22430;-55
2022/04/08 11:08:10;;;;;;;21.30;8.70;;;;;;;13.47;59.91;97573.77;109352;1272;138419;-55
2022/04/08 11:10:39;;;;;;;38.00;18.60;;;;;;;13.41;60.33;97582.42;109442;1274;22399;-55
2022/04/08 11:13:11;;;;;;;57.80;31.50;;;;;;;13.33;61.05;97594.29;109447;1274;22412;-55
2022/04/08 11:15:42;;;;;;;68.10;31.40;;;;;;;13.25;62.04;97602.33;109250;1274;138645;-56
2022/04/08 11:18:12;;;;;;;121.10;64.70;;;;;;;13.13;63.23;97614.35;109342;1274;23245;-55
2022/04/08 11:20:47;;;;;;;94.40;51.70;;;;;;;12.97;64.07;97634.32;109338;1274;139734;-56
2022/04/08 11:23:36;;;;;;;16.00;8.20;;;;;;;12.77;65.90;97661.23;109443;1274;22432;-55
2022/04/08 11:26:12;;;;;;;25.20;12.70;;;;;;;12.46;67.35;97670.50;109275;1274;138394;-55
2022/04/08 11:28:42;;;;;;;58.50;28.10;;;;;;;12.13;68.08;97676.59;109183;1274;23001;-55
2022/04/08 11:31:33;;;;;;;38.40;16.80;;;;;;;11.79;69.51;97687.15;109360;1274;139693;-56
2022/04/08 11:34:06;;;;;;;39.10;16.30;;;;;;;11.52;70.66;97690.52;109457;1274;22429;-55
2022/04/08 11:36:43;;;;;;;34.00;15.60;;;;;;;11.28;72.29;97692.70;109065;1276;22395;-55
2022/04/08 11:39:21;;;;;;;22.10;8.90;;;;;;;11.12;73.40;97694.86;109352;1274;138577;-54
2022/04/08 11:41:52;;;;;;;13.10;6.00;;;;;;;11.00;74.57;97700.91;109431;1274;23111;-54